Terminal Aerodrome Forecast
Issued by NWS Green Bay, WI

Home | Current Version | Previous Version | Graphics & Text | Print | Product List | Glossary On
Versions: 1 2 3 4 5 6 7 8 9 10 11 12 13 14 15 16 17 18 19 20 21 22 23 24 25 26 27 28 29 30 31 32 33 34 35 36 37 38 39 40 41 42 43 44 45 46 47 48
000
FTUS43 KGRB 201825 AAA
TAFGRB
TAF AMD
KGRB 201825Z 2018/2118 27010G17KT P6SM SCT028 OVC090
      TEMPO 2018/2019 BKN028
     FM201900 29009KT P6SM VCSH BKN050
      TEMPO 2020/2022 3SM TSRA BKN035CB
     FM210000 30008KT P6SM SCT060
     FM210400 VRB03KT P6SM SKC
      TEMPO 2108/2111 3SM BR
     FM211600 23006KT P6SM SCT040=

USA.gov is the U.S. government's official web portal to all federal, state and local government web resources and services.